sensor_id;sensor_type;location;lat;lon;timestamp;P1;durP1;ratioP1;P2;durP2;ratioP2
3401;SDS011;1714;49.756;8.610;2023-05-15T00:10:13;2.22;;;1.90;;
3401;SDS011;1714;49.756;8.610;2023-05-15T00:20:48;2.17;;;1.73;;
3401;SDS011;1714;49.756;8.610;2023-05-15T00:31:22;7.85;;;1.88;;
3401;SDS011;1714;49.756;8.610;2023-05-15T00:41:57;4.68;;;2.65;;
3401;SDS011;1714;49.756;8.610;2023-05-15T00:52:35;2.70;;;1.98;;
3401;SDS011;1714;49.756;8.610;2023-05-15T01:03:10;2.25;;;2.05;;
3401;SDS011;1714;49.756;8.610;2023-05-15T01:13:45;2.95;;;1.90;;
3401;SDS011;1714;49.756;8.610;2023-05-15T01:35:30;3.83;;;2.30;;
3401;SDS011;1714;49.756;8.610;2023-05-15T01:46:16;7.00;;;2.33;;
3401;SDS011;1714;49.756;8.610;2023-05-15T01:56:56;4.90;;;2.42;;
3401;SDS011;1714;49.756;8.610;2023-05-15T02:07:31;3.10;;;2.53;;
3401;SDS011;1714;49.756;8.610;2023-05-15T02:18:08;7.13;;;2.47;;
3401;SDS011;1714;49.756;8.610;2023-05-15T02:39:28;2.40;;;2.20;;
3401;SDS011;1714;49.756;8.610;2023-05-15T02:50:04;3.05;;;2.28;;
3401;SDS011;1714;49.756;8.610;2023-05-15T03:00:39;7.45;;;2.75;;
3401;SDS011;1714;49.756;8.610;2023-05-15T03:11:14;3.78;;;2.40;;
3401;SDS011;1714;49.756;8.610;2023-05-15T03:21:50;3.45;;;2.10;;
3401;SDS011;1714;49.756;8.610;2023-05-15T03:32:25;5.63;;;2.75;;
3401;SDS011;1714;49.756;8.610;2023-05-15T03:43:00;4.57;;;2.22;;
3401;SDS011;1714;49.756;8.610;2023-05-15T03:53:34;2.65;;;2.15;;
3401;SDS011;1714;49.756;8.610;2023-05-15T04:04:10;2.85;;;2.33;;
3401;SDS011;1714;49.756;8.610;2023-05-15T04:14:44;6.05;;;2.60;;
3401;SDS011;1714;49.756;8.610;2023-05-15T04:25:19;4.50;;;2.60;;
3401;SDS011;1714;49.756;8.610;2023-05-15T04:35:54;2.60;;;2.33;;
3401;SDS011;1714;49.756;8.610;2023-05-15T04:46:29;5.93;;;2.78;;
3401;SDS011;1714;49.756;8.610;2023-05-15T04:57:08;3.50;;;2.40;;
3401;SDS011;1714;49.756;8.610;2023-05-15T05:07:43;2.83;;;2.63;;
3401;SDS011;1714;49.756;8.610;2023-05-15T05:18:19;4.03;;;3.17;;
3401;SDS011;1714;49.756;8.610;2023-05-15T05:28:54;3.60;;;3.20;;
3401;SDS011;1714;49.756;8.610;2023-05-15T05:39:29;8.02;;;4.75;;
3401;SDS011;1714;49.756;8.610;2023-05-15T05:50:04;7.82;;;5.30;;
3401;SDS011;1714;49.756;8.610;2023-05-15T06:00:39;6.88;;;4.75;;
3401;SDS011;1714;49.756;8.610;2023-05-15T06:11:14;4.82;;;4.35;;
3401;SDS011;1714;49.756;8.610;2023-05-15T06:21:49;5.75;;;4.47;;
3401;SDS011;1714;49.756;8.610;2023-05-15T06:32:24;5.63;;;5.10;;
3401;SDS011;1714;49.756;8.610;2023-05-15T06:42:59;4.97;;;4.45;;
3401;SDS011;1714;49.756;8.610;2023-05-15T06:53:34;6.95;;;4.55;;
3401;SDS011;1714;49.756;8.610;2023-05-15T07:04:09;5.43;;;3.40;;
3401;SDS011;1714;49.756;8.610;2023-05-15T07:14:45;3.60;;;3.25;;
3401;SDS011;1714;49.756;8.610;2023-05-15T07:25:20;5.30;;;3.95;;
3401;SDS011;1714;49.756;8.610;2023-05-15T07:35:56;4.85;;;3.90;;
3401;SDS011;1714;49.756;8.610;2023-05-15T07:46:31;3.92;;;3.58;;
3401;SDS011;1714;49.756;8.610;2023-05-15T07:57:07;6.03;;;3.47;;
3401;SDS011;1714;49.756;8.610;2023-05-15T08:07:42;3.35;;;3.05;;
3401;SDS011;1714;49.756;8.610;2023-05-15T08:18:17;3.28;;;2.97;;
3401;SDS011;1714;49.756;8.610;2023-05-15T08:28:51;3.85;;;3.20;;
3401;SDS011;1714;49.756;8.610;2023-05-15T08:39:26;3.03;;;2.70;;
3401;SDS011;1714;49.756;8.610;2023-05-15T08:50:08;5.35;;;3.88;;
3401;SDS011;1714;49.756;8.610;2023-05-15T09:00:48;4.90;;;3.70;;
3401;SDS011;1714;49.756;8.610;2023-05-15T09:11:23;8.90;;;4.93;;
3401;SDS011;1714;49.756;8.610;2023-05-15T09:32:59;10.82;;;6.45;;
3401;SDS011;1714;49.756;8.610;2023-05-15T09:43:37;9.55;;;6.18;;
3401;SDS011;1714;49.756;8.610;2023-05-15T09:54:13;6.40;;;5.60;;
3401;SDS011;1714;49.756;8.610;2023-05-15T10:04:53;9.18;;;7.90;;
3401;SDS011;1714;49.756;8.610;2023-05-15T10:15:30;7.93;;;6.47;;
3401;SDS011;1714;49.756;8.610;2023-05-15T10:26:07;5.90;;;5.30;;
3401;SDS011;1714;49.756;8.610;2023-05-15T10:37:09;6.38;;;4.30;;
3401;SDS011;1714;49.756;8.610;2023-05-15T10:47:45;7.45;;;5.65;;
3401;SDS011;1714;49.756;8.610;2023-05-15T10:58:21;6.05;;;5.22;;
3401;SDS011;1714;49.756;8.610;2023-05-15T11:20:11;11.25;;;8.52;;
3401;SDS011;1714;49.756;8.610;2023-05-15T11:30:46;14.52;;;10.13;;
3401;SDS011;1714;49.756;8.610;2023-05-15T11:41:26;16.67;;;9.43;;
3401;SDS011;1714;49.756;8.610;2023-05-15T11:52:04;15.32;;;11.82;;
3401;SDS011;1714;49.756;8.610;2023-05-15T12:02:40;16.27;;;9.63;;
3401;SDS011;1714;49.756;8.610;2023-05-15T12:13:16;10.68;;;7.95;;
3401;SDS011;1714;49.756;8.610;2023-05-15T12:23:51;9.10;;;6.97;;
3401;SDS011;1714;49.756;8.610;2023-05-15T12:34:40;11.00;;;8.37;;
3401;SDS011;1714;49.756;8.610;2023-05-15T12:45:15;9.95;;;8.68;;
3401;SDS011;1714;49.756;8.610;2023-05-15T12:55:52;13.18;;;8.43;;
3401;SDS011;1714;49.756;8.610;2023-05-15T13:06:26;13.75;;;9.50;;
3401;SDS011;1714;49.756;8.610;2023-05-15T13:17:18;18.50;;;10.30;;
3401;SDS011;1714;49.756;8.610;2023-05-15T13:27:59;7.97;;;6.85;;
3401;SDS011;1714;49.756;8.610;2023-05-15T13:38:36;12.60;;;7.75;;
3401;SDS011;1714;49.756;8.610;2023-05-15T13:49:11;9.95;;;7.85;;
3401;SDS011;1714;49.756;8.610;2023-05-15T13:59:46;8.70;;;6.47;;
3401;SDS011;1714;49.756;8.610;2023-05-15T14:10:21;11.05;;;6.40;;
3401;SDS011;1714;49.756;8.610;2023-05-15T14:20:57;5.68;;;5.18;;
3401;SDS011;1714;49.756;8.610;2023-05-15T14:31:32;6.95;;;5.90;;
3401;SDS011;1714;49.756;8.610;2023-05-15T14:42:07;7.68;;;5.88;;
3401;SDS011;1714;49.756;8.610;2023-05-15T14:52:43;7.68;;;5.20;;
3401;SDS011;1714;49.756;8.610;2023-05-15T15:03:18;5.38;;;3.75;;
3401;SDS011;1714;49.756;8.610;2023-05-15T15:13:54;5.70;;;4.55;;
3401;SDS011;1714;49.756;8.610;2023-05-15T15:24:29;6.40;;;4.10;;
3401;SDS011;1714;49.756;8.610;2023-05-15T15:35:04;4.88;;;3.53;;
3401;SDS011;1714;49.756;8.610;2023-05-15T15:45:39;3.38;;;3.08;;
3401;SDS011;1714;49.756;8.610;2023-05-15T15:56:14;3.42;;;3.13;;
3401;SDS011;1714;49.756;8.610;2023-05-15T16:06:50;5.65;;;3.28;;
3401;SDS011;1714;49.756;8.610;2023-05-15T16:17:25;4.65;;;2.92;;
3401;SDS011;1714;49.756;8.610;2023-05-15T16:27:59;3.08;;;2.72;;
3401;SDS011;1714;49.756;8.610;2023-05-15T16:38:34;2.97;;;2.67;;
3401;SDS011;1714;49.756;8.610;2023-05-15T16:49:09;5.00;;;2.58;;
3401;SDS011;1714;49.756;8.610;2023-05-15T16:59:44;3.13;;;2.53;;
3401;SDS011;1714;49.756;8.610;2023-05-15T17:10:19;8.80;;;3.00;;
3401;SDS011;1714;49.756;8.610;2023-05-15T17:20:53;3.80;;;2.78;;
3401;SDS011;1714;49.756;8.610;2023-05-15T17:31:28;2.88;;;2.67;;
3401;SDS011;1714;49.756;8.610;2023-05-15T17:42:03;5.90;;;2.85;;
3401;SDS011;1714;49.756;8.610;2023-05-15T17:52:38;7.32;;;3.08;;
3401;SDS011;1714;49.756;8.610;2023-05-15T18:03:13;4.38;;;3.22;;
3401;SDS011;1714;49.756;8.610;2023-05-15T18:13:47;5.07;;;4.15;;
3401;SDS011;1714;49.756;8.610;2023-05-15T18:24:22;4.15;;;3.75;;
3401;SDS011;1714;49.756;8.610;2023-05-15T18:34:58;4.63;;;3.33;;
3401;SDS011;1714;49.756;8.610;2023-05-15T18:45:32;5.82;;;3.53;;
3401;SDS011;1714;49.756;8.610;2023-05-15T18:56:07;9.10;;;4.25;;
3401;SDS011;1714;49.756;8.610;2023-05-15T19:06:42;6.22;;;4.25;;
3401;SDS011;1714;49.756;8.610;2023-05-15T19:17:17;7.43;;;4.50;;
3401;SDS011;1714;49.756;8.610;2023-05-15T19:27:53;5.07;;;4.40;;
3401;SDS011;1714;49.756;8.610;2023-05-15T19:38:28;7.05;;;4.53;;
3401;SDS011;1714;49.756;8.610;2023-05-15T19:49:03;8.05;;;4.88;;
3401;SDS011;1714;49.756;8.610;2023-05-15T19:59:39;4.78;;;3.92;;
3401;SDS011;1714;49.756;8.610;2023-05-15T20:10:13;7.32;;;5.18;;
3401;SDS011;1714;49.756;8.610;2023-05-15T20:20:51;6.45;;;5.43;;
3401;SDS011;1714;49.756;8.610;2023-05-15T20:31:26;7.35;;;5.03;;
3401;SDS011;1714;49.756;8.610;2023-05-15T20:42:01;8.05;;;4.93;;
3401;SDS011;1714;49.756;8.610;2023-05-15T20:52:35;7.75;;;5.35;;
3401;SDS011;1714;49.756;8.610;2023-05-15T21:03:11;8.73;;;5.07;;
3401;SDS011;1714;49.756;8.610;2023-05-15T21:13:46;8.93;;;5.38;;
3401;SDS011;1714;49.756;8.610;2023-05-15T21:24:21;5.57;;;5.07;;
3401;SDS011;1714;49.756;8.610;2023-05-15T21:34:55;6.65;;;5.20;;
3401;SDS011;1714;49.756;8.610;2023-05-15T21:45:30;10.80;;;6.20;;
3401;SDS011;1714;49.756;8.610;2023-05-15T21:56:05;9.00;;;5.13;;
3401;SDS011;1714;49.756;8.610;2023-05-15T22:06:40;14.20;;;8.85;;
3401;SDS011;1714;49.756;8.610;2023-05-15T22:17:16;15.70;;;10.60;;
3401;SDS011;1714;49.756;8.610;2023-05-15T22:27:54;17.38;;;11.65;;
3401;SDS011;1714;49.756;8.610;2023-05-15T22:38:28;17.42;;;12.60;;
3401;SDS011;1714;49.756;8.610;2023-05-15T22:49:03;17.23;;;13.05;;
3401;SDS011;1714;49.756;8.610;2023-05-15T22:59:42;18.00;;;12.73;;
3401;SDS011;1714;49.756;8.610;2023-05-15T23:10:16;20.05;;;12.73;;
3401;SDS011;1714;49.756;8.610;2023-05-15T23:20:51;19.63;;;14.10;;
3401;SDS011;1714;49.756;8.610;2023-05-15T23:31:26;22.27;;;14.43;;
3401;SDS011;1714;49.756;8.610;2023-05-15T23:42:01;23.77;;;15.45;;
3401;SDS011;1714;49.756;8.610;2023-05-15T23:52:36;30.38;;;16.20;;
